Terminal Aerodrome Forecast
Issued by NWS

Current Version | Previous Version | Text Only | Print | Product List | Glossary On
Versions: 1 2 3 4 5 6 7 8 9 10 11 12 13 14 15 16 17
145
FTUS42 KJAX 241919 AAC
TAFVQQ
TAF AMD
KVQQ 241919Z 2419/2518 09012KT P6SM SCT050 SCT250
     FM250200 VRB02KT P6SM FEW250
     FM250700 00000KT 5SM BR SKC
     FM251400 11005KT P6SM SKC=

USA.gov is the U.S. government's official web portal to all federal, state and local government web resources and services.